Terminal Aerodrome Forecast
Issued by NWS Billings, MT

Home | Current Version | Previous Version | Text Only | Print | Product List | Glossary On
Versions: 1 2 3 4 5 6 7 8 9 10 11 12 13 14 15 16 17 18 19 20 21 22 23 24
000
FTUS45 KBYZ 200537
TAFBIL
TAF
KBIL 200537Z 2006/2106 35005KT P6SM VCSH SCT060 BKN090
     FM202000 04009KT P6SM VCTS BKN050CB
     FM210000 31011KT 4SM SHRA VCTS BKN050CB=

USA.gov is the U.S. government's official web portal to all federal, state and local government web resources and services.